createdAt,value
2022-11-12T00:01:24.828Z,102770.75
2022-11-12T00:03:53.865Z,102766.53
2022-11-12T00:06:20.904Z,102767.72
2022-11-12T00:08:50.392Z,102768.34
2022-11-12T00:11:21.935Z,102761.00
2022-11-12T00:13:51.335Z,102761.09
2022-11-12T00:16:18.288Z,102766.78
2022-11-12T00:18:45.239Z,102765.94
2022-11-12T00:21:12.225Z,102765.19
2022-11-12T00:23:39.221Z,102767.84
2022-11-12T00:26:06.174Z,102774.75
2022-11-12T00:28:37.507Z,102760.81
2022-11-12T00:31:10.900Z,102758.47
2022-11-12T00:33:46.183Z,102760.19
2022-11-12T00:36:13.229Z,102752.44
2022-11-12T00:38:40.289Z,102760.81
2022-11-12T00:41:07.208Z,102765.25
2022-11-12T00:43:34.276Z,102766.75
2022-11-12T00:46:01.310Z,102754.00
2022-11-12T00:48:28.533Z,102761.13
2022-11-12T00:51:04.557Z,102759.44
2022-11-12T00:53:32.306Z,102757.56
2022-11-12T00:56:09.559Z,102763.56
2022-11-12T00:58:36.759Z,102767.19
2022-11-12T01:01:16.997Z,102770.88
2022-11-12T01:03:44.910Z,102763.72
2022-11-12T01:06:16.361Z,102770.22
2022-11-12T01:08:46.434Z,102759.59
2022-11-12T01:11:22.260Z,102769.69
2022-11-12T01:13:56.475Z,102773.75
2022-11-12T01:16:32.511Z,102768.88
2022-11-12T01:19:04.051Z,102761.75
2022-11-12T01:21:32.975Z,102770.81
2022-11-12T01:24:01.672Z,102763.63
2022-11-12T01:26:28.977Z,102763.31
2022-11-12T01:28:57.033Z,102753.78
2022-11-12T01:31:30.052Z,102764.88
2022-11-12T01:34:06.049Z,102763.38
2022-11-12T01:36:39.124Z,102762.78
2022-11-12T01:39:09.625Z,102766.44
2022-11-12T01:41:42.640Z,102771.53
2022-11-12T01:44:17.856Z,102766.34
2022-11-12T01:47:02.575Z,102767.59
2022-11-12T01:49:52.367Z,102766.81
2022-11-12T01:52:35.963Z,102771.06
2022-11-12T01:55:13.677Z,102777.00
2022-11-12T01:57:50.664Z,102770.25
2022-11-12T02:00:18.166Z,102771.22
2022-11-12T02:02:53.513Z,102771.94
2022-11-12T02:05:22.736Z,102775.09
2022-11-12T02:07:51.237Z,102774.50
2022-11-12T02:10:21.595Z,102779.00
2022-11-12T02:13:12.493Z,102779.88
2022-11-12T02:15:41.092Z,102774.41
2022-11-12T02:18:08.802Z,102770.34
2022-11-12T02:20:38.325Z,102779.00
2022-11-12T02:23:08.566Z,102782.47
2022-11-12T02:25:36.726Z,102770.75
2022-11-12T02:28:07.991Z,102763.53
2022-11-12T02:30:40.649Z,102768.41
2022-11-12T02:33:07.679Z,102783.16
2022-11-12T02:35:35.088Z,102785.72
2022-11-12T02:38:04.817Z,102769.75
2022-11-12T02:40:34.472Z,102788.53
2022-11-12T02:43:04.699Z,102796.72
2022-11-12T02:45:32.441Z,102790.09
2022-11-12T02:48:01.856Z,102790.97
2022-11-12T02:50:29.642Z,102793.94
2022-11-12T02:52:59.395Z,102794.81
2022-11-12T02:55:26.918Z,102800.38
2022-11-12T02:57:58.814Z,102805.50
2022-11-12T03:00:26.080Z,102800.47
2022-11-12T03:02:59.500Z,102812.09
2022-11-12T03:05:35.892Z,102806.09
2022-11-12T03:08:09.563Z,102803.34
2022-11-12T03:10:40.217Z,102797.44
2022-11-12T03:13:07.364Z,102802.03
2022-11-12T03:15:34.574Z,102806.97
2022-11-12T03:18:04.054Z,102802.19
2022-11-12T03:20:31.312Z,102800.38
2022-11-12T03:23:10.615Z,102796.38
2022-11-12T03:25:40.730Z,102796.72
2022-11-12T03:28:11.974Z,102806.44
2022-11-12T03:30:44.758Z,102809.72
2022-11-12T03:33:14.092Z,102798.88
2022-11-12T03:35:41.663Z,102791.84
2022-11-12T03:38:09.098Z,102805.94
2022-11-12T03:40:38.727Z,102793.31
2022-11-12T03:43:05.844Z,102793.19
2022-11-12T03:45:34.683Z,102806.03
2022-11-12T03:48:01.587Z,102808.97
2022-11-12T03:50:30.477Z,102806.97
2022-11-12T03:52:59.996Z,102803.16
2022-11-12T03:55:29.592Z,102803.69
2022-11-12T03:57:57.818Z,102797.09
2022-11-12T04:00:28.807Z,102791.00
2022-11-12T04:02:59.657Z,102802.47
2022-11-12T04:05:46.557Z,102810.00
2022-11-12T04:08:38.383Z,102797.41
2022-11-12T04:11:18.120Z,102797.94
2022-11-12T04:13:50.205Z,102810.00
2022-11-12T04:16:43.109Z,102804.88
2022-11-12T04:19:31.770Z,102804.63
2022-11-12T04:22:08.893Z,102808.53
2022-11-12T04:25:00.215Z,102809.41
2022-11-12T04:27:30.549Z,102804.91
2022-11-12T04:30:19.036Z,102800.91
2022-11-12T04:33:00.181Z,102804.72
2022-11-12T04:35:30.301Z,102801.94
2022-11-12T04:38:00.273Z,102799.41
2022-11-12T04:40:50.705Z,102798.63
2022-11-12T04:43:36.863Z,102801.75
2022-11-12T04:46:06.482Z,102796.56
2022-11-12T04:48:35.859Z,102789.84
2022-11-12T04:51:28.545Z,102790.47
2022-11-12T04:53:58.005Z,102779.38
2022-11-12T04:56:25.021Z,102785.59
2022-11-12T04:58:54.500Z,102788.72
2022-11-12T05:01:24.035Z,102778.59
2022-11-12T05:03:50.970Z,102783.16
2022-11-12T05:06:36.118Z,102790.00
2022-11-12T05:09:03.089Z,102777.78
2022-11-12T05:11:29.976Z,102788.47
2022-11-12T05:13:56.966Z,102802.47
2022-11-12T05:16:23.869Z,102787.78
2022-11-12T05:18:53.088Z,102777.38
2022-11-12T05:21:43.299Z,102781.44
2022-11-12T05:24:22.430Z,102780.56
2022-11-12T05:26:57.981Z,102795.50
2022-11-12T05:29:27.139Z,102790.47
2022-11-12T05:31:54.353Z,102776.59
2022-11-12T05:34:23.183Z,102774.84
2022-11-12T05:36:51.517Z,102772.22
2022-11-12T05:39:21.222Z,102777.75
2022-11-12T05:42:11.402Z,102773.63
2022-11-12T05:44:37.941Z,102777.28
2022-11-12T05:47:09.576Z,102771.47
2022-11-12T05:49:39.463Z,102771.38
2022-11-12T05:52:09.341Z,102763.75
2022-11-12T05:54:36.268Z,102773.13
2022-11-12T05:57:04.117Z,102785.63
2022-11-12T05:59:31.084Z,102792.03
2022-11-12T06:02:00.279Z,102780.16
2022-11-12T06:04:29.288Z,102786.13
2022-11-12T06:06:58.947Z,102804.28
2022-11-12T06:09:28.233Z,102792.53
2022-11-12T06:11:55.442Z,102785.84
2022-11-12T06:14:27.778Z,102794.44
2022-11-12T06:16:55.908Z,102797.94
2022-11-12T06:19:22.807Z,102800.50
2022-11-12T06:21:49.913Z,102812.19
2022-11-12T06:24:20.531Z,102817.91
2022-11-12T06:26:50.199Z,102823.19
2022-11-12T06:29:17.272Z,102826.22
2022-11-12T06:31:44.194Z,102803.63
2022-11-12T06:34:13.905Z,102809.34
2022-11-12T06:36:41.040Z,102829.47
2022-11-12T06:39:10.569Z,102825.69
2022-11-12T06:41:40.634Z,102824.72
2022-11-12T06:44:07.729Z,102829.75
2022-11-12T06:46:36.844Z,102815.28
2022-11-12T06:49:06.393Z,102830.81
2022-11-12T06:51:35.943Z,102836.09
2022-11-12T06:54:03.258Z,102837.13
2022-11-12T06:56:32.732Z,102834.38
2022-11-12T06:59:01.730Z,102850.56
2022-11-12T07:01:31.039Z,102837.50
2022-11-12T07:03:58.239Z,102841.94
2022-11-12T07:06:25.427Z,102842.09
2022-11-12T07:08:52.404Z,102848.66
2022-11-12T07:11:20.538Z,102841.06
2022-11-12T07:13:53.101Z,102850.28
2022-11-12T07:16:22.612Z,102849.94
2022-11-12T07:18:50.193Z,102843.28
2022-11-12T07:21:20.080Z,102830.22
2022-11-12T07:23:48.161Z,102849.03
2022-11-12T07:26:25.794Z,102847.09
2022-11-12T07:28:53.762Z,102846.63
2022-11-12T07:31:21.103Z,102859.41
2022-11-12T07:33:50.951Z,102863.09
2022-11-12T07:36:21.218Z,102861.34
2022-11-12T07:38:52.859Z,102848.59
2022-11-12T07:41:23.251Z,102863.78
2022-11-12T07:43:56.760Z,102868.25
2022-11-12T07:46:27.258Z,102857.00
2022-11-12T07:48:59.322Z,102859.78
2022-11-12T07:51:32.067Z,102856.13
2022-11-12T07:54:00.114Z,102846.13
2022-11-12T07:56:29.935Z,102854.16
2022-11-12T07:59:01.246Z,102869.03
2022-11-12T08:01:46.388Z,102865.03
2022-11-12T08:04:14.180Z,102854.03
2022-11-12T08:06:41.945Z,102856.38
2022-11-12T08:09:11.903Z,102863.22
2022-11-12T08:11:39.203Z,102864.81
2022-11-12T08:14:08.487Z,102867.31
2022-11-12T08:16:37.699Z,102870.19
2022-11-12T08:19:05.287Z,102870.25
2022-11-12T08:21:39.575Z,102864.38
2022-11-12T08:24:07.027Z,102877.31
2022-11-12T08:26:37.343Z,102879.44
2022-11-12T08:29:08.561Z,102878.56
2022-11-12T08:31:38.522Z,102869.19
2022-11-12T08:34:18.700Z,102876.50
2022-11-12T08:36:50.832Z,102882.56
2022-11-12T08:39:17.888Z,102889.06
2022-11-12T08:41:47.879Z,102877.63
2022-11-12T08:44:19.464Z,102876.19
2022-11-12T08:46:46.611Z,102878.78
2022-11-12T08:49:13.679Z,102882.16
2022-11-12T08:51:40.602Z,102883.69
2022-11-12T08:54:07.542Z,102882.75
2022-11-12T08:56:34.584Z,102884.19
2022-11-12T08:59:07.089Z,102889.28
2022-11-12T09:01:34.560Z,102882.78
2022-11-12T09:04:03.974Z,102875.50
2022-11-12T09:06:30.909Z,102877.88
2022-11-12T09:09:00.172Z,102894.09
2022-11-12T09:11:27.113Z,102901.63
2022-11-12T09:13:54.718Z,102895.09
2022-11-12T09:16:22.178Z,102894.56
2022-11-12T09:18:51.687Z,102896.28
2022-11-12T09:21:21.780Z,102890.38
2022-11-12T09:23:53.235Z,102889.38
2022-11-12T09:26:22.631Z,102911.34
2022-11-12T09:28:49.690Z,102913.72
2022-11-12T09:31:16.632Z,102904.28
2022-11-12T09:33:43.550Z,102894.41
2022-11-12T09:36:10.681Z,102895.38
2022-11-12T09:38:40.685Z,102906.22
2022-11-12T09:41:13.468Z,102905.41
2022-11-12T09:43:51.271Z,102903.16
2022-11-12T09:46:29.928Z,102897.75
2022-11-12T09:49:08.288Z,102900.84
2022-11-12T09:51:43.651Z,102892.53
2022-11-12T09:54:24.751Z,102893.78
2022-11-12T09:56:56.831Z,102883.09
2022-11-12T09:59:30.127Z,102893.31
2022-11-12T10:02:15.726Z,102899.81
2022-11-12T10:04:51.301Z,102890.53
2022-11-12T10:07:42.612Z,102884.22
2022-11-12T10:10:55.718Z,102894.66
2022-11-12T10:13:59.524Z,102885.91
2022-11-12T10:16:47.974Z,102869.03
2022-11-12T10:19:32.999Z,102875.47
2022-11-12T10:22:33.761Z,102894.16
2022-11-12T10:25:20.801Z,102894.22
2022-11-12T10:27:54.986Z,102886.38
2022-11-12T10:30:25.362Z,102873.06
2022-11-12T10:32:53.614Z,102873.34
2022-11-12T10:35:24.728Z,102889.31
2022-11-12T10:38:03.902Z,102887.72
2022-11-12T10:40:35.224Z,102886.56
2022-11-12T10:43:16.297Z,102885.72
2022-11-12T10:45:45.696Z,102893.47
2022-11-12T10:48:32.992Z,102895.22
2022-11-12T10:51:01.043Z,102900.28
2022-11-12T10:53:37.863Z,102890.16
2022-11-12T10:56:31.610Z,102892.16
2022-11-12T10:59:23.616Z,102896.75
2022-11-12T11:02:00.450Z,102903.50
2022-11-12T11:04:38.136Z,102893.03
2022-11-12T11:07:21.680Z,102880.56
2022-11-12T11:10:00.878Z,102892.28
2022-11-12T11:12:32.872Z,102890.31
2022-11-12T11:15:23.384Z,102871.09
2022-11-12T11:17:50.689Z,102862.19
2022-11-12T11:20:44.742Z,102872.22
2022-11-12T11:23:36.540Z,102871.94
2022-11-12T11:26:27.818Z,102871.84
2022-11-12T11:29:07.989Z,102864.38
2022-11-12T11:32:00.465Z,102870.84
2022-11-12T11:34:48.564Z,102883.13
2022-11-12T11:37:27.532Z,102874.09
2022-11-12T11:40:00.304Z,102865.03
2022-11-12T11:42:58.095Z,102860.53
2022-11-12T11:45:56.547Z,102864.78
2022-11-12T11:48:35.093Z,102878.19
2022-11-12T11:51:26.102Z,102873.06
2022-11-12T11:54:07.932Z,102866.69
2022-11-12T11:56:42.635Z,102861.13
2022-11-12T11:59:51.569Z,102867.50
2022-11-12T12:02:52.509Z,102863.88
2022-11-12T12:05:41.548Z,102860.69
2022-11-12T12:08:35.338Z,102860.34
2022-11-12T12:11:10.119Z,102864.97
2022-11-12T12:14:04.327Z,102858.13
2022-11-12T12:16:42.745Z,102851.25
2022-11-12T12:19:56.332Z,102841.63
2022-11-12T12:22:41.159Z,102844.91
2022-11-12T12:25:43.597Z,102843.69
2022-11-12T12:28:31.777Z,102844.34
2022-11-12T12:31:09.765Z,102849.53
2022-11-12T12:34:10.218Z,102840.25
2022-11-12T12:36:41.323Z,102842.31
2022-11-12T12:39:19.673Z,102850.06
2022-11-12T12:42:33.212Z,102848.16
2022-11-12T12:45:58.685Z,102833.00
2022-11-12T12:48:36.415Z,102824.28
2022-11-12T12:51:03.724Z,102825.31
2022-11-12T12:53:33.440Z,102825.47
2022-11-12T12:56:23.204Z,102815.19
2022-11-12T12:58:55.223Z,102819.03
2022-11-12T13:01:22.573Z,102810.28
2022-11-12T13:04:08.951Z,102811.44
2022-11-12T13:06:39.836Z,102797.56
2022-11-12T13:09:15.590Z,102801.22
2022-11-12T13:12:00.735Z,102796.69
2022-11-12T13:14:39.164Z,102798.22
2022-11-12T13:17:09.127Z,102791.28
2022-11-12T13:20:02.428Z,102799.59
2022-11-12T13:22:40.913Z,102795.19
2022-11-12T13:25:14.129Z,102780.97
2022-11-12T13:27:46.747Z,102785.53
2022-11-12T13:30:13.672Z,102780.13
2022-11-12T13:32:46.971Z,102778.66
2022-11-12T13:35:22.798Z,102785.16
2022-11-12T13:37:49.665Z,102785.38
2022-11-12T13:40:43.915Z,102779.03
2022-11-12T13:43:19.603Z,102773.16
2022-11-12T13:46:00.876Z,102779.50
2022-11-12T13:48:39.634Z,102778.13
2022-11-12T13:51:34.210Z,102779.50
2022-11-12T13:54:01.736Z,102769.94
2022-11-12T13:56:34.556Z,102770.44
2022-11-12T13:59:22.353Z,102765.44
2022-11-12T14:01:52.563Z,102763.44
2022-11-12T14:04:24.612Z,102766.69
2022-11-12T14:07:31.541Z,102761.13
2022-11-12T14:10:27.951Z,102760.66
2022-11-12T14:13:12.411Z,102770.25
2022-11-12T14:16:10.136Z,102771.19
2022-11-12T14:19:02.905Z,102771.75
2022-11-12T14:21:30.087Z,102764.72
2022-11-12T14:23:57.194Z,102763.22
2022-11-12T14:26:45.886Z,102757.28
2022-11-12T14:29:20.032Z,102757.63
2022-11-12T14:31:47.625Z,102760.91
2022-11-12T14:34:33.115Z,102762.53
2022-11-12T14:37:01.140Z,102767.00
2022-11-12T14:39:32.016Z,102765.41
2022-11-12T14:42:00.410Z,102764.72
2022-11-12T14:44:35.359Z,102764.16
2022-11-12T14:47:03.227Z,102765.69
2022-11-12T14:49:44.391Z,102757.13
2022-11-12T14:52:16.639Z,102764.72
2022-11-12T14:54:52.147Z,102759.50
2022-11-12T14:57:24.881Z,102757.88
2022-11-12T14:59:57.200Z,102753.34
2022-11-12T15:02:58.851Z,102752.41
2022-11-12T15:05:27.429Z,102756.03
2022-11-12T15:07:59.728Z,102752.34
2022-11-12T15:10:44.203Z,102752.34
2022-11-12T15:13:27.137Z,102750.69
2022-11-12T15:16:03.610Z,102742.81
2022-11-12T15:18:33.968Z,102748.91
2022-11-12T15:21:27.249Z,102763.69
2022-11-12T15:24:29.031Z,102759.84
2022-11-12T15:26:58.431Z,102775.94
2022-11-12T15:29:28.424Z,102765.88
2022-11-12T15:32:14.001Z,102762.44
2022-11-12T15:34:41.111Z,102752.94
2022-11-12T15:37:28.025Z,102766.88
2022-11-12T15:40:04.140Z,102758.38
2022-11-12T15:42:39.102Z,102759.38
2022-11-12T15:45:16.560Z,102761.06
2022-11-12T15:48:03.320Z,102757.84
2022-11-12T15:50:39.100Z,102759.81
2022-11-12T15:53:10.962Z,102762.41
2022-11-12T15:55:43.631Z,102771.22
2022-11-12T15:58:42.674Z,102765.78
2022-11-12T16:01:17.043Z,102767.56
2022-11-12T16:03:45.592Z,102764.19
2022-11-12T16:06:22.734Z,102760.34
2022-11-12T16:09:03.139Z,102772.09
2022-11-12T16:11:39.169Z,102781.84
2022-11-12T16:14:24.990Z,102782.53
2022-11-12T16:16:56.371Z,102775.53
2022-11-12T16:19:30.129Z,102772.09
2022-11-12T16:22:19.211Z,102780.25
2022-11-12T16:25:04.851Z,102772.59
2022-11-12T16:27:44.263Z,102780.88
2022-11-12T16:30:32.639Z,102780.66
2022-11-12T16:33:07.721Z,102773.38
2022-11-12T16:35:44.445Z,102770.66
2022-11-12T16:38:26.714Z,102779.31
2022-11-12T16:41:00.866Z,102769.94
2022-11-12T16:43:39.946Z,102771.81
2022-11-12T16:46:26.269Z,102768.22
2022-11-12T16:48:54.011Z,102766.88
2022-11-12T16:51:22.848Z,102763.03
2022-11-12T16:53:58.316Z,102764.28
2022-11-12T16:56:28.890Z,102763.28
2022-11-12T16:59:04.329Z,102767.47
2022-11-12T17:01:37.319Z,102762.03
2022-11-12T17:04:07.523Z,102763.13
2022-11-12T17:06:44.224Z,102765.94
2022-11-12T17:09:12.462Z,102760.78
2022-11-12T17:11:42.051Z,102761.38
2022-11-12T17:14:09.289Z,102764.22
2022-11-12T17:16:38.896Z,102757.81
2022-11-12T17:19:06.075Z,102756.81
2022-11-12T17:21:37.347Z,102765.63
2022-11-12T17:24:08.846Z,102770.19
2022-11-12T17:26:38.070Z,102768.53
2022-11-12T17:29:08.098Z,102775.16
2022-11-12T17:31:38.910Z,102778.75
2022-11-12T17:34:08.312Z,102769.69
2022-11-12T17:36:39.229Z,102765.53
2022-11-12T17:39:13.615Z,102761.44
2022-11-12T17:41:43.113Z,102762.31
2022-11-12T17:44:17.863Z,102763.28
2022-11-12T17:46:47.492Z,102768.44
2022-11-12T17:49:17.472Z,102760.75
2022-11-12T17:51:44.539Z,102766.59
2022-11-12T17:54:14.198Z,102771.16
2022-11-12T17:56:41.096Z,102780.47
2022-11-12T17:59:08.306Z,102779.31
2022-11-12T18:01:40.755Z,102775.81
2022-11-12T18:04:10.747Z,102779.03
2022-11-12T18:06:37.753Z,102770.66
2022-11-12T18:09:14.540Z,102770.78
2022-11-12T18:11:54.714Z,102780.28
2022-11-12T18:14:23.078Z,102779.25
2022-11-12T18:16:50.238Z,102778.63
2022-11-12T18:19:17.369Z,102777.50
2022-11-12T18:21:44.425Z,102777.50
2022-11-12T18:24:15.868Z,102782.00
2022-11-12T18:26:44.331Z,102779.09
2022-11-12T18:29:14.317Z,102774.50
2022-11-12T18:31:44.668Z,102776.34
2022-11-12T18:34:15.002Z,102784.63
2022-11-12T18:36:42.136Z,102778.56
2022-11-12T18:39:09.326Z,102784.31
2022-11-12T18:41:36.477Z,102773.28
2022-11-12T18:44:05.714Z,102768.94
2022-11-12T18:46:34.945Z,102777.03
2022-11-12T18:49:05.037Z,102777.28
2022-11-12T18:51:34.560Z,102768.09
2022-11-12T18:54:01.436Z,102767.31
2022-11-12T18:56:28.791Z,102767.38
2022-11-12T18:58:58.364Z,102766.44
2022-11-12T19:01:25.616Z,102750.63
2022-11-12T19:03:55.712Z,102752.22
2022-11-12T19:06:24.169Z,102748.56
2022-11-12T19:08:51.836Z,102757.19
2022-11-12T19:11:26.806Z,102749.34
2022-11-12T19:13:55.499Z,102736.78
2022-11-12T19:16:26.635Z,102743.41
2022-11-12T19:18:53.674Z,102739.13
2022-11-12T19:21:24.309Z,102741.09
2022-11-12T19:23:54.841Z,102730.06
2022-11-12T19:26:27.106Z,102722.06
2022-11-12T19:28:57.001Z,102720.47
2022-11-12T19:31:26.220Z,102727.72
2022-11-12T19:33:53.207Z,102726.78
2022-11-12T19:36:24.027Z,102731.16
2022-11-12T19:38:58.999Z,102726.66
2022-11-12T19:41:26.367Z,102717.09
2022-11-12T19:43:53.451Z,102724.84
2022-11-12T19:46:21.061Z,102732.84
2022-11-12T19:48:53.151Z,102726.94
2022-11-12T19:51:24.426Z,102716.47
2022-11-12T19:53:51.744Z,102712.53
2022-11-12T19:56:21.729Z,102713.44
2022-11-12T19:58:54.879Z,102708.16
2022-11-12T20:01:24.533Z,102712.78
2022-11-12T20:03:51.658Z,102721.44
2022-11-12T20:06:23.310Z,102718.59
2022-11-12T20:08:55.510Z,102710.34
2022-11-12T20:11:25.063Z,102704.69
2022-11-12T20:13:56.123Z,102698.31
2022-11-12T20:16:26.388Z,102709.00
2022-11-12T20:19:02.451Z,102705.56
2022-11-12T20:21:30.976Z,102701.00
2022-11-12T20:23:57.955Z,102694.53
2022-11-12T20:26:26.753Z,102699.78
2022-11-12T20:28:56.766Z,102702.38
2022-11-12T20:31:24.217Z,102700.69
2022-11-12T20:33:54.190Z,102693.78
2022-11-12T20:36:23.241Z,102694.69
2022-11-12T20:38:50.741Z,102686.09
2022-11-12T20:41:24.562Z,102683.44
2022-11-12T20:44:02.994Z,102675.66
2022-11-12T20:46:30.115Z,102675.25
2022-11-12T20:48:57.154Z,102674.53
2022-11-12T20:51:32.955Z,102673.38
2022-11-12T20:54:00.947Z,102676.88
2022-11-12T20:56:30.343Z,102680.31
2022-11-12T20:58:59.852Z,102674.53
2022-11-12T21:01:30.407Z,102661.84
2022-11-12T21:03:58.592Z,102673.47
2022-11-12T21:06:29.551Z,102671.63
2022-11-12T21:08:59.894Z,102670.56
2022-11-12T21:11:26.937Z,102663.88
2022-11-12T21:13:54.178Z,102664.84
2022-11-12T21:16:27.318Z,102656.03
2022-11-12T21:18:54.356Z,102660.78
2022-11-12T21:21:21.863Z,102656.81
2022-11-12T21:23:50.304Z,102648.91
2022-11-12T21:26:22.073Z,102649.13
2022-11-12T21:28:54.761Z,102655.88
2022-11-12T21:31:26.168Z,102652.13
2022-11-12T21:33:56.399Z,102651.31
2022-11-12T21:36:26.940Z,102654.56
2022-11-12T21:38:54.010Z,102656.03
2022-11-12T21:41:27.154Z,102654.56
2022-11-12T21:43:54.778Z,102652.00
2022-11-12T21:46:31.266Z,102652.91
2022-11-12T21:48:58.545Z,102656.75
2022-11-12T21:51:32.876Z,102660.63
2022-11-12T21:54:08.364Z,102642.59
2022-11-12T21:56:37.718Z,102646.06
2022-11-12T21:59:04.688Z,102652.00
2022-11-12T22:01:34.290Z,102651.69
2022-11-12T22:04:06.328Z,102646.41
2022-11-12T22:06:38.114Z,102659.81
2022-11-12T22:09:07.571Z,102658.97
2022-11-12T22:11:34.702Z,102657.13
2022-11-12T22:14:01.774Z,102644.03
2022-11-12T22:16:32.032Z,102648.59
2022-11-12T22:19:02.106Z,102639.50
2022-11-12T22:21:38.604Z,102642.31
2022-11-12T22:24:07.357Z,102640.47
2022-11-12T22:26:34.342Z,102642.22
2022-11-12T22:29:04.007Z,102647.09
2022-11-12T22:31:32.660Z,102644.50
2022-11-12T22:34:06.708Z,102642.78
2022-11-12T22:36:37.783Z,102643.00
2022-11-12T22:39:05.612Z,102634.88
2022-11-12T22:41:32.918Z,102635.75
2022-11-12T22:44:02.390Z,102635.84
2022-11-12T22:46:39.052Z,102638.63
2022-11-12T22:49:08.443Z,102637.34
2022-11-12T22:51:37.882Z,102636.06
2022-11-12T22:54:07.941Z,102631.84
2022-11-12T22:56:35.149Z,102622.66
2022-11-12T22:59:04.977Z,102630.66
2022-11-12T23:01:34.725Z,102632.41
2022-11-12T23:04:05.166Z,102628.81
2022-11-12T23:06:32.736Z,102624.41
2022-11-12T23:09:02.451Z,102631.00
2022-11-12T23:11:30.049Z,102625.94
2022-11-12T23:13:59.904Z,102621.81
2022-11-12T23:16:31.186Z,102616.84
2022-11-12T23:18:59.077Z,102619.00
2022-11-12T23:21:32.030Z,102618.38
2022-11-12T23:23:59.969Z,102612.75
2022-11-12T23:26:31.104Z,102623.88
2022-11-12T23:29:01.757Z,102631.22
2022-11-12T23:31:31.139Z,102620.75
2022-11-12T23:34:00.244Z,102630.16
2022-11-12T23:36:28.090Z,102622.78
2022-11-12T23:38:56.308Z,102621.81
2022-11-12T23:41:25.833Z,102613.94
2022-11-12T23:43:54.488Z,102620.94
2022-11-12T23:46:24.649Z,102620.75
2022-11-12T23:48:51.532Z,102609.91
2022-11-12T23:51:25.262Z,102612.47
2022-11-12T23:53:54.342Z,102611.22
2022-11-12T23:56:21.260Z,102613.56
2022-11-12T23:58:48.462Z,102614.13
